首页
METAR-TAF:

METAR-TAF

机场 :

梅明根机场

梅明根, 德国

纬度: 47-59-33N, 经度: 10-14-37E, 海拔: 633米

当前天气观测

该预报发布于39分钟前的16:20 UTC
风速2节,风向多变
温度 2°C
湿度 93%
气压 1021 hPa
能见度10公里或以上
1500米以下无云,无积雨云

METAR: EDJA 241620Z VRB02KT CAVOK 02/01 Q1021

时间: 17:59 (16:59 UTC)

预报

该预报发布于2小时和59分钟前的14:00 UTC
预报有效从24日的 15点(UTC)到 24日的 24点(UTC)
风速3节,风向多变
能见度10公里或以上
1500米以下无云,无积雨云

TAF: EDJA 241400Z 2415/2424 VRB03KT CAVOK

超过4000个机场的气象观测和天气预报(METAR&TAF报告)。

可查询的气象台以黄色和红色小点在地图上表示。

将鼠标移到小点上方,可查看气象台名称。

然后点击查看天气观测和预报。

如需切换地图:点击带黑十字的绿色按钮放大地图;点击带横线的绿色按钮缩小地图;或者点击绿色箭头查看邻近地区的地图。


METAR-TAF: